createdAt,value
2023-05-09T00:01:53.983Z,14.30
2023-05-09T00:03:59.672Z,14.40
2023-05-09T00:06:02.768Z,14.30
2023-05-09T00:08:05.581Z,14.40
2023-05-09T00:10:09.070Z,14.40
2023-05-09T00:12:12.595Z,14.30
2023-05-09T00:14:15.079Z,14.70
2023-05-09T00:16:18.178Z,14.40
2023-05-09T00:18:20.861Z,14.30
2023-05-09T00:20:26.002Z,14.40
2023-05-09T00:22:29.528Z,14.40
2023-05-09T00:24:32.113Z,14.40
2023-05-09T00:26:34.518Z,14.40
2023-05-09T00:28:37.573Z,14.40
2023-05-09T00:30:39.974Z,14.40
2023-05-09T00:32:42.529Z,14.40
2023-05-09T00:34:45.076Z,14.40
2023-05-09T00:36:50.827Z,14.40
2023-05-09T00:38:53.350Z,14.50
2023-05-09T00:40:55.903Z,14.50
2023-05-09T00:42:59.761Z,14.50
2023-05-09T00:45:02.496Z,14.50
2023-05-09T00:47:05.098Z,14.40
2023-05-09T00:49:08.293Z,14.40
2023-05-09T00:51:10.922Z,14.40
2023-05-09T00:53:16.900Z,15.10
2023-05-09T00:55:19.672Z,14.40
2023-05-09T00:57:22.342Z,14.40
2023-05-09T00:59:25.038Z,14.40
2023-05-09T01:01:27.516Z,14.40
2023-05-09T01:03:33.225Z,14.40
2023-05-09T01:05:44.034Z,14.40
2023-05-09T01:07:52.853Z,14.40
2023-05-09T01:10:15.968Z,14.40
2023-05-09T01:12:35.022Z,14.40
2023-05-09T01:14:44.818Z,14.40
2023-05-09T01:16:55.298Z,14.30
2023-05-09T01:19:08.576Z,15.10
2023-05-09T01:21:16.139Z,14.30
2023-05-09T01:23:50.821Z,14.30
2023-05-09T01:26:03.522Z,14.50
2023-05-09T01:28:14.558Z,14.30
2023-05-09T01:30:23.132Z,14.30
2023-05-09T01:32:31.560Z,14.30
2023-05-09T01:34:35.706Z,14.30
2023-05-09T01:36:40.334Z,14.40
2023-05-09T01:38:48.976Z,14.30
2023-05-09T01:40:54.919Z,14.80
2023-05-09T01:43:00.000Z,14.80
2023-05-09T01:45:04.557Z,14.30
2023-05-09T01:47:14.627Z,14.30
2023-05-09T01:49:19.766Z,14.40
2023-05-09T01:51:23.066Z,14.30
2023-05-09T01:53:28.294Z,14.30
2023-05-09T01:55:34.046Z,14.20
2023-05-09T01:57:40.384Z,14.30
2023-05-09T01:59:45.468Z,14.40
2023-05-09T02:01:48.671Z,14.20
2023-05-09T02:03:55.969Z,14.20
2023-05-09T02:05:58.497Z,14.60
2023-05-09T02:08:01.400Z,14.20
2023-05-09T02:10:05.921Z,14.20
2023-05-09T02:12:08.671Z,14.20
2023-05-09T02:14:11.324Z,14.10
2023-05-09T02:16:14.249Z,14.10
2023-05-09T02:18:17.578Z,14.10
2023-05-09T02:20:22.823Z,14.10
2023-05-09T02:22:25.981Z,14.10
2023-05-09T02:24:28.627Z,14.10
2023-05-09T02:26:31.733Z,14.00
2023-05-09T02:28:35.779Z,14.10
2023-05-09T02:30:40.357Z,14.00
2023-05-09T02:32:47.425Z,14.00
2023-05-09T02:34:52.404Z,14.00
2023-05-09T02:36:57.633Z,14.00
2023-05-09T02:39:01.559Z,14.00
2023-05-09T02:41:05.679Z,14.00
2023-05-09T02:43:08.225Z,14.00
2023-05-09T02:45:11.562Z,14.00
2023-05-09T02:47:16.824Z,14.00
2023-05-09T02:49:31.402Z,14.10
2023-05-09T02:51:36.531Z,14.10
2023-05-09T02:53:42.402Z,14.10
2023-05-09T02:55:45.358Z,14.10
2023-05-09T02:57:49.260Z,14.10
2023-05-09T02:59:54.443Z,14.10
2023-05-09T03:01:58.022Z,14.10
2023-05-09T03:04:00.570Z,14.10
2023-05-09T03:06:03.168Z,14.10
2023-05-09T03:08:06.195Z,14.10
2023-05-09T03:10:13.820Z,14.50
2023-05-09T03:12:17.737Z,14.10
2023-05-09T03:14:20.187Z,14.20
2023-05-09T03:16:25.990Z,14.10
2023-05-09T03:18:28.618Z,14.20
2023-05-09T03:20:31.309Z,14.10
2023-05-09T03:22:35.960Z,14.20
2023-05-09T03:24:41.087Z,14.20
2023-05-09T03:26:48.610Z,14.20
2023-05-09T03:28:52.663Z,14.70
2023-05-09T03:30:55.317Z,14.20
2023-05-09T03:33:00.864Z,14.20
2023-05-09T03:35:04.057Z,14.10
2023-05-09T03:37:08.238Z,14.10
2023-05-09T03:39:14.728Z,14.20
2023-05-09T03:41:21.560Z,14.20
2023-05-09T03:43:27.306Z,14.10
2023-05-09T03:45:29.918Z,14.90
2023-05-09T03:47:33.053Z,14.30
2023-05-09T03:49:36.438Z,14.10
2023-05-09T03:51:41.868Z,14.20
2023-05-09T03:53:50.144Z,14.10
2023-05-09T03:55:53.004Z,14.10
2023-05-09T03:57:56.276Z,14.20
2023-05-09T04:00:02.545Z,14.10
2023-05-09T04:02:16.484Z,14.10
2023-05-09T04:04:21.340Z,14.10
2023-05-09T04:06:24.160Z,14.20
2023-05-09T04:08:27.734Z,14.20
2023-05-09T04:10:31.166Z,14.20
2023-05-09T04:12:37.138Z,14.20
2023-05-09T04:14:42.808Z,14.20
2023-05-09T04:16:47.853Z,14.20
2023-05-09T04:18:50.325Z,14.20
2023-05-09T04:20:53.624Z,14.20
2023-05-09T04:22:56.931Z,14.60
2023-05-09T04:24:59.728Z,14.20
2023-05-09T04:27:02.471Z,14.30
2023-05-09T04:29:05.332Z,14.30
2023-05-09T04:31:08.119Z,14.30
2023-05-09T04:33:17.376Z,14.30
2023-05-09T04:35:21.022Z,14.30
2023-05-09T04:37:25.067Z,14.40
2023-05-09T04:39:28.048Z,14.40
2023-05-09T04:41:39.342Z,14.40
2023-05-09T04:43:42.650Z,14.50
2023-05-09T04:45:48.051Z,14.50
2023-05-09T04:47:51.490Z,14.50
2023-05-09T04:49:56.753Z,14.50
2023-05-09T04:51:59.235Z,14.50
2023-05-09T04:54:02.917Z,14.50
2023-05-09T04:56:08.971Z,14.60
2023-05-09T04:58:12.225Z,14.60
2023-05-09T05:00:16.910Z,14.60
2023-05-09T05:02:22.463Z,14.60
2023-05-09T05:04:26.299Z,14.70
2023-05-09T05:06:32.090Z,14.70
2023-05-09T05:08:35.648Z,14.70
2023-05-09T05:10:38.355Z,14.80
2023-05-09T05:12:47.570Z,14.80
2023-05-09T05:14:53.645Z,14.90
2023-05-09T05:17:01.253Z,14.90
2023-05-09T05:19:04.533Z,14.90
2023-05-09T05:21:12.400Z,15.30
2023-05-09T05:23:18.635Z,14.90
2023-05-09T05:25:23.825Z,15.00
2023-05-09T05:27:27.973Z,15.20
2023-05-09T05:29:30.602Z,15.00
2023-05-09T05:31:33.484Z,15.00
2023-05-09T05:33:36.079Z,15.00
2023-05-09T05:35:39.162Z,15.00
2023-05-09T05:37:42.151Z,15.00
2023-05-09T05:39:47.550Z,15.00
2023-05-09T05:41:52.242Z,15.00
2023-05-09T05:43:55.685Z,15.00
2023-05-09T05:45:58.317Z,15.00
2023-05-09T05:48:02.896Z,15.10
2023-05-09T05:50:12.829Z,15.00
2023-05-09T05:52:16.094Z,15.00
2023-05-09T05:54:21.118Z,15.10
2023-05-09T05:56:26.400Z,15.00
2023-05-09T05:58:29.561Z,15.30
2023-05-09T06:00:32.161Z,15.50
2023-05-09T06:02:42.136Z,15.00
2023-05-09T06:04:45.051Z,15.00
2023-05-09T06:06:47.694Z,15.10
2023-05-09T06:08:50.602Z,15.00
2023-05-09T06:10:53.137Z,15.10
2023-05-09T06:12:58.297Z,15.00
2023-05-09T06:15:01.111Z,15.00
2023-05-09T06:17:04.401Z,15.10
2023-05-09T06:19:06.949Z,15.10
2023-05-09T06:21:09.529Z,15.10
2023-05-09T06:23:12.117Z,15.20
2023-05-09T06:25:15.320Z,15.20
2023-05-09T06:27:18.386Z,15.70
2023-05-09T06:29:23.597Z,15.30
2023-05-09T06:31:26.416Z,15.40
2023-05-09T06:33:31.101Z,15.40
2023-05-09T06:35:33.522Z,15.40
2023-05-09T06:37:38.661Z,15.50
2023-05-09T06:39:41.320Z,15.50
2023-05-09T06:41:43.715Z,15.50
2023-05-09T06:43:46.284Z,15.50
2023-05-09T06:45:51.527Z,15.50
2023-05-09T06:47:54.195Z,15.50
2023-05-09T06:49:56.722Z,15.50
2023-05-09T06:51:59.300Z,15.50
2023-05-09T06:54:01.929Z,15.50
2023-05-09T06:56:05.627Z,15.60
2023-05-09T06:58:08.244Z,15.50
2023-05-09T07:00:12.131Z,15.50
2023-05-09T07:02:17.177Z,15.50
2023-05-09T07:04:19.674Z,15.50
2023-05-09T07:06:22.116Z,15.50
2023-05-09T07:08:24.787Z,15.50
2023-05-09T07:10:27.329Z,15.40
2023-05-09T07:12:32.218Z,15.40
2023-05-09T07:14:34.668Z,15.40
2023-05-09T07:16:37.953Z,15.50
2023-05-09T07:18:43.190Z,15.70
2023-05-09T07:20:46.056Z,15.50
2023-05-09T07:22:50.062Z,15.50
2023-05-09T07:24:52.539Z,15.50
2023-05-09T07:26:55.136Z,15.60
2023-05-09T07:28:57.712Z,15.60
2023-05-09T07:31:00.624Z,15.60
2023-05-09T07:33:03.337Z,15.60
2023-05-09T07:35:08.958Z,15.60
2023-05-09T07:37:12.925Z,15.70
2023-05-09T07:39:17.072Z,15.70
2023-05-09T07:41:19.766Z,15.70
2023-05-09T07:43:22.490Z,15.80
2023-05-09T07:45:25.091Z,15.80
2023-05-09T07:47:27.637Z,15.80
2023-05-09T07:49:30.164Z,15.90
2023-05-09T07:51:35.240Z,15.90
2023-05-09T07:53:37.859Z,16.00
2023-05-09T07:55:40.305Z,16.00
2023-05-09T07:57:46.836Z,16.10
2023-05-09T07:59:49.348Z,16.20
2023-05-09T08:01:51.964Z,16.20
2023-05-09T08:03:54.669Z,16.10
2023-05-09T08:05:57.229Z,16.00
2023-05-09T08:08:02.327Z,16.00
2023-05-09T08:10:05.768Z,16.10
2023-05-09T08:12:08.693Z,16.10
2023-05-09T08:14:11.842Z,16.20
2023-05-09T08:16:15.240Z,16.10
2023-05-09T08:18:17.999Z,16.20
2023-05-09T08:20:20.499Z,16.20
2023-05-09T08:22:23.040Z,16.20
2023-05-09T08:24:28.413Z,16.30
2023-05-09T08:26:30.942Z,16.30
2023-05-09T08:28:36.510Z,16.30
2023-05-09T08:30:39.689Z,16.40
2023-05-09T08:32:42.251Z,16.40
2023-05-09T08:34:44.711Z,16.50
2023-05-09T08:36:47.309Z,16.50
2023-05-09T08:38:49.891Z,16.50
2023-05-09T08:41:00.977Z,16.70
2023-05-09T08:43:06.264Z,16.70
2023-05-09T08:45:10.628Z,16.70
2023-05-09T08:47:14.069Z,16.80
2023-05-09T08:49:16.967Z,16.80
2023-05-09T08:51:20.454Z,16.90
2023-05-09T08:53:23.707Z,16.80
2023-05-09T08:55:27.870Z,16.80
2023-05-09T08:57:33.788Z,16.80
2023-05-09T08:59:38.516Z,16.80
2023-05-09T09:01:41.732Z,16.80
2023-05-09T09:03:47.946Z,16.80
2023-05-09T09:05:53.838Z,16.80
2023-05-09T09:07:58.000Z,16.80
2023-05-09T09:10:00.991Z,16.90
2023-05-09T09:12:06.881Z,16.90
2023-05-09T09:14:16.688Z,17.10
2023-05-09T09:16:25.366Z,17.10
2023-05-09T09:18:30.771Z,17.20
2023-05-09T09:20:34.966Z,17.30
2023-05-09T09:22:38.104Z,17.20
2023-05-09T09:24:40.703Z,17.30
2023-05-09T09:26:48.186Z,17.30
2023-05-09T09:28:54.551Z,17.30
2023-05-09T09:30:59.896Z,17.30
2023-05-09T09:33:02.713Z,17.30
2023-05-09T09:35:07.266Z,17.30
2023-05-09T09:37:09.872Z,17.40
2023-05-09T09:39:14.009Z,17.70
2023-05-09T09:41:16.282Z,17.50
2023-05-09T09:43:18.895Z,17.50
2023-05-09T09:45:21.530Z,17.50
2023-05-09T09:47:34.257Z,17.60
2023-05-09T09:49:36.786Z,17.50
2023-05-09T09:51:39.322Z,17.50
2023-05-09T09:53:42.647Z,17.50
2023-05-09T09:55:51.193Z,17.50
2023-05-09T09:57:54.017Z,17.50
2023-05-09T09:59:59.440Z,17.50
2023-05-09T10:02:07.692Z,17.80
2023-05-09T10:04:16.953Z,17.50
2023-05-09T10:06:19.574Z,17.60
2023-05-09T10:08:22.044Z,17.60
2023-05-09T10:10:27.328Z,17.50
2023-05-09T10:12:33.746Z,17.50
2023-05-09T10:14:38.622Z,17.40
2023-05-09T10:16:44.218Z,17.50
2023-05-09T10:18:47.151Z,17.50
2023-05-09T10:20:53.431Z,17.50
2023-05-09T10:22:58.094Z,17.50
2023-05-09T10:25:03.743Z,17.60
2023-05-09T10:27:11.205Z,17.70
2023-05-09T10:29:21.280Z,17.80
2023-05-09T10:31:26.565Z,18.00
2023-05-09T10:33:38.022Z,18.20
2023-05-09T10:35:44.821Z,18.30
2023-05-09T10:37:50.357Z,18.40
2023-05-09T10:39:54.803Z,18.40
2023-05-09T10:41:59.235Z,18.50
2023-05-09T10:44:02.014Z,18.50
2023-05-09T10:46:05.479Z,18.50
2023-05-09T10:48:09.431Z,18.50
2023-05-09T10:50:15.625Z,18.60
2023-05-09T10:52:19.118Z,18.60
2023-05-09T10:54:32.493Z,18.50
2023-05-09T10:56:40.081Z,18.50
2023-05-09T10:58:42.770Z,18.50
2023-05-09T11:00:46.947Z,18.50
2023-05-09T11:03:11.078Z,18.50
2023-05-09T11:05:15.353Z,18.50
2023-05-09T11:07:25.882Z,18.50
2023-05-09T11:09:38.327Z,18.50
2023-05-09T11:11:52.559Z,18.40
2023-05-09T11:13:58.598Z,18.40
2023-05-09T11:16:11.933Z,19.00
2023-05-09T11:18:14.438Z,18.50
2023-05-09T11:20:16.964Z,18.40
2023-05-09T11:22:21.500Z,18.50
2023-05-09T11:24:26.256Z,18.50
2023-05-09T11:26:32.922Z,18.40
2023-05-09T11:28:36.992Z,18.30
2023-05-09T11:30:40.797Z,18.30
2023-05-09T11:32:49.262Z,18.30
2023-05-09T11:34:51.854Z,18.30
2023-05-09T11:37:08.027Z,18.30
2023-05-09T11:39:11.686Z,18.30
2023-05-09T11:41:14.666Z,18.30
2023-05-09T11:43:19.882Z,18.40
2023-05-09T11:45:24.072Z,18.40
2023-05-09T11:47:27.539Z,18.50
2023-05-09T11:49:30.006Z,18.60
2023-05-09T11:51:32.713Z,18.70
2023-05-09T11:53:35.310Z,18.70
2023-05-09T11:55:41.404Z,18.70
2023-05-09T11:57:49.047Z,18.80
2023-05-09T11:59:54.493Z,18.80
2023-05-09T12:02:02.225Z,18.90
2023-05-09T12:04:08.182Z,19.00
2023-05-09T12:06:15.739Z,19.00
2023-05-09T12:08:18.541Z,19.00
2023-05-09T12:10:25.974Z,19.00
2023-05-09T12:12:28.490Z,19.10
2023-05-09T12:14:32.586Z,19.10
2023-05-09T12:16:45.194Z,19.10
2023-05-09T12:18:48.891Z,19.20
2023-05-09T12:20:51.551Z,19.30
2023-05-09T12:22:56.383Z,19.30
2023-05-09T12:25:01.761Z,19.30
2023-05-09T12:27:05.224Z,19.40
2023-05-09T12:29:07.932Z,19.40
2023-05-09T12:31:10.539Z,19.50
2023-05-09T12:33:16.331Z,19.40
2023-05-09T12:35:23.093Z,19.50
2023-05-09T12:37:25.865Z,19.50
2023-05-09T12:39:30.447Z,19.50
2023-05-09T12:41:43.968Z,19.50
2023-05-09T12:43:56.217Z,19.50
2023-05-09T12:45:59.539Z,19.50
2023-05-09T12:48:02.921Z,19.50
2023-05-09T12:50:13.540Z,19.50
2023-05-09T12:52:20.727Z,19.50
2023-05-09T12:54:24.208Z,19.40
2023-05-09T12:56:26.757Z,19.40
2023-05-09T12:58:32.881Z,19.40
2023-05-09T13:00:45.432Z,19.40
2023-05-09T13:02:53.191Z,19.40
2023-05-09T13:05:21.171Z,19.40
2023-05-09T13:07:23.711Z,19.40
2023-05-09T13:09:30.573Z,19.40
2023-05-09T13:11:33.190Z,19.50
2023-05-09T13:13:35.756Z,19.40
2023-05-09T13:15:38.517Z,19.50
2023-05-09T13:17:41.505Z,19.40
2023-05-09T13:19:44.174Z,19.40
2023-05-09T13:21:49.713Z,19.40
2023-05-09T13:23:52.379Z,19.30
2023-05-09T13:25:54.998Z,19.30
2023-05-09T13:27:57.528Z,19.20
2023-05-09T13:30:00.409Z,19.20
2023-05-09T13:32:03.695Z,19.10
2023-05-09T13:34:06.230Z,19.00
2023-05-09T13:36:09.050Z,18.90
2023-05-09T13:38:14.109Z,18.70
2023-05-09T13:40:16.939Z,18.80
2023-05-09T13:42:19.936Z,18.80
2023-05-09T13:44:23.857Z,18.70
2023-05-09T13:46:28.900Z,18.70
2023-05-09T13:48:31.532Z,18.60
2023-05-09T13:50:34.733Z,18.50
2023-05-09T13:52:37.200Z,18.50
2023-05-09T13:54:45.399Z,18.30
2023-05-09T13:56:47.992Z,18.20
2023-05-09T13:58:50.501Z,18.20
2023-05-09T14:00:53.125Z,18.10
2023-05-09T14:02:56.581Z,18.00
2023-05-09T14:04:59.300Z,18.00
2023-05-09T14:07:01.865Z,17.90
2023-05-09T14:09:04.552Z,17.80
2023-05-09T14:11:09.748Z,17.80
2023-05-09T14:13:12.891Z,17.70
2023-05-09T14:15:16.647Z,17.70
2023-05-09T14:17:19.202Z,17.60
2023-05-09T14:19:21.735Z,17.50
2023-05-09T14:21:24.304Z,17.50
2023-05-09T14:23:26.817Z,17.50
2023-05-09T14:25:29.622Z,17.40
2023-05-09T14:27:37.285Z,17.40
2023-05-09T14:29:41.313Z,17.40
2023-05-09T14:31:44.183Z,17.40
2023-05-09T14:33:46.779Z,17.40
2023-05-09T14:35:49.937Z,17.40
2023-05-09T14:37:52.528Z,17.30
2023-05-09T14:39:57.772Z,17.30
2023-05-09T14:42:00.332Z,17.20
2023-05-09T14:44:05.504Z,17.20
2023-05-09T14:46:08.126Z,17.10
2023-05-09T14:48:10.807Z,17.10
2023-05-09T14:50:16.404Z,17.10
2023-05-09T14:52:19.126Z,17.10
2023-05-09T14:54:21.708Z,17.10
2023-05-09T14:56:24.261Z,17.00
2023-05-09T14:58:26.764Z,17.00
2023-05-09T15:00:35.870Z,16.90
2023-05-09T15:02:38.560Z,16.90
2023-05-09T15:04:43.995Z,16.90
2023-05-09T15:06:49.370Z,16.80
2023-05-09T15:08:52.409Z,16.80
2023-05-09T15:10:58.080Z,17.20
2023-05-09T15:13:00.810Z,16.80
2023-05-09T15:15:16.987Z,16.80
2023-05-09T15:17:22.906Z,16.80
2023-05-09T15:19:26.500Z,16.80
2023-05-09T15:21:29.654Z,16.80
2023-05-09T15:23:32.335Z,16.80
2023-05-09T15:25:35.255Z,16.90
2023-05-09T15:27:38.125Z,16.80
2023-05-09T15:29:42.062Z,16.80
2023-05-09T15:31:44.588Z,16.90
2023-05-09T15:33:49.700Z,16.80
2023-05-09T15:35:56.788Z,16.70
2023-05-09T15:37:59.558Z,16.90
2023-05-09T15:40:02.242Z,16.70
2023-05-09T15:42:07.255Z,16.70
2023-05-09T15:44:09.785Z,16.70
2023-05-09T15:46:14.619Z,16.70
2023-05-09T15:48:17.227Z,16.60
2023-05-09T15:50:22.569Z,16.60
2023-05-09T15:52:30.848Z,16.60
2023-05-09T15:54:33.876Z,16.60
2023-05-09T15:56:39.273Z,16.60
2023-05-09T15:58:43.247Z,16.60
2023-05-09T16:00:45.832Z,16.50
2023-05-09T16:02:48.526Z,16.50
2023-05-09T16:04:51.876Z,16.50
2023-05-09T16:06:57.456Z,16.50
2023-05-09T16:09:02.250Z,16.50
2023-05-09T16:11:05.374Z,16.50
2023-05-09T16:13:08.359Z,16.40
2023-05-09T16:15:12.106Z,16.40
2023-05-09T16:17:14.633Z,16.30
2023-05-09T16:19:17.248Z,16.30
2023-05-09T16:21:20.021Z,16.30
2023-05-09T16:23:26.116Z,16.30
2023-05-09T16:25:28.697Z,16.30
2023-05-09T16:27:31.167Z,16.30
2023-05-09T16:29:33.686Z,16.30
2023-05-09T16:31:36.249Z,16.20
2023-05-09T16:33:40.058Z,16.20
2023-05-09T16:35:45.421Z,16.20
2023-05-09T16:37:48.092Z,16.20
2023-05-09T16:39:56.732Z,16.20
2023-05-09T16:41:59.761Z,16.20
2023-05-09T16:44:02.344Z,16.20
2023-05-09T16:46:05.354Z,16.10
2023-05-09T16:48:09.999Z,16.10
2023-05-09T16:50:12.531Z,16.00
2023-05-09T16:52:15.489Z,16.10
2023-05-09T16:54:17.917Z,16.00
2023-05-09T16:56:23.590Z,16.00
2023-05-09T16:58:26.181Z,16.00
2023-05-09T17:00:28.966Z,16.00
2023-05-09T17:02:31.613Z,16.00
2023-05-09T17:04:36.724Z,16.00
2023-05-09T17:06:41.034Z,16.10
2023-05-09T17:08:43.546Z,16.00
2023-05-09T17:10:49.225Z,15.90
2023-05-09T17:12:54.655Z,15.90
2023-05-09T17:14:59.200Z,15.90
2023-05-09T17:17:04.502Z,15.90
2023-05-09T17:19:07.026Z,15.90
2023-05-09T17:21:10.081Z,15.80
2023-05-09T17:23:12.758Z,15.80
2023-05-09T17:25:15.710Z,15.80
2023-05-09T17:27:21.283Z,15.80
2023-05-09T17:29:28.458Z,15.70
2023-05-09T17:31:32.537Z,15.70
2023-05-09T17:33:34.968Z,15.70
2023-05-09T17:35:37.899Z,15.70
2023-05-09T17:37:40.387Z,15.70
2023-05-09T17:39:44.059Z,15.70
2023-05-09T17:41:46.874Z,15.60
2023-05-09T17:43:51.437Z,15.70
2023-05-09T17:45:57.064Z,15.70
2023-05-09T17:48:01.672Z,15.70
2023-05-09T17:50:04.914Z,15.70
2023-05-09T17:52:07.668Z,15.70
2023-05-09T17:54:11.030Z,15.70
2023-05-09T17:56:16.826Z,15.70
2023-05-09T17:58:27.830Z,15.70
2023-05-09T18:00:30.927Z,15.90
2023-05-09T18:02:36.274Z,15.70
2023-05-09T18:04:41.856Z,15.60
2023-05-09T18:06:45.207Z,15.60
2023-05-09T18:08:48.036Z,15.60
2023-05-09T18:10:50.769Z,15.60
2023-05-09T18:12:53.314Z,15.60
2023-05-09T18:14:57.188Z,15.60
2023-05-09T18:16:59.702Z,15.50
2023-05-09T18:19:06.256Z,15.50
2023-05-09T18:21:09.965Z,15.60
2023-05-09T18:23:12.437Z,15.50
2023-05-09T18:25:15.305Z,15.50
2023-05-09T18:27:17.797Z,15.80
2023-05-09T18:29:20.319Z,15.40
2023-05-09T18:31:23.064Z,15.40
2023-05-09T18:33:27.653Z,15.40
2023-05-09T18:35:33.098Z,15.40
2023-05-09T18:37:35.839Z,15.40
2023-05-09T18:39:38.338Z,15.40
2023-05-09T18:41:40.980Z,15.40
2023-05-09T18:43:47.312Z,15.30
2023-05-09T18:45:50.204Z,15.30
2023-05-09T18:47:52.757Z,15.30
2023-05-09T18:49:55.516Z,15.30
2023-05-09T18:52:00.916Z,15.30
2023-05-09T18:54:03.613Z,15.20
2023-05-09T18:56:06.502Z,15.20
2023-05-09T18:58:08.929Z,15.20
2023-05-09T19:00:13.158Z,15.10
2023-05-09T19:02:15.978Z,15.10
2023-05-09T19:04:19.720Z,15.10
2023-05-09T19:06:22.528Z,15.10
2023-05-09T19:08:29.419Z,15.10
2023-05-09T19:10:32.179Z,15.00
2023-05-09T19:12:37.765Z,15.00
2023-05-09T19:14:40.911Z,15.00
2023-05-09T19:16:43.659Z,15.00
2023-05-09T19:18:46.234Z,15.10
2023-05-09T19:20:49.451Z,15.00
2023-05-09T19:22:52.339Z,15.00
2023-05-09T19:24:57.755Z,15.10
2023-05-09T19:27:02.722Z,14.90
2023-05-09T19:29:08.338Z,14.90
2023-05-09T19:31:11.147Z,15.00
2023-05-09T19:33:14.004Z,14.90
2023-05-09T19:35:16.913Z,15.00
2023-05-09T19:37:19.556Z,14.90
2023-05-09T19:39:22.046Z,14.90
2023-05-09T19:41:27.480Z,14.90
2023-05-09T19:43:30.240Z,14.90
2023-05-09T19:45:32.734Z,15.10
2023-05-09T19:47:35.374Z,14.90
2023-05-09T19:49:38.612Z,14.90
2023-05-09T19:51:43.588Z,14.90
2023-05-09T19:53:47.080Z,14.90
2023-05-09T19:55:49.598Z,15.40
2023-05-09T19:57:54.647Z,14.80
2023-05-09T19:59:58.284Z,14.90
2023-05-09T20:02:01.202Z,14.80
2023-05-09T20:04:04.025Z,14.80
2023-05-09T20:06:09.352Z,14.80
2023-05-09T20:08:12.145Z,14.80
2023-05-09T20:10:16.382Z,14.80
2023-05-09T20:12:21.531Z,14.80
2023-05-09T20:14:26.833Z,14.80
2023-05-09T20:16:29.421Z,14.80
2023-05-09T20:18:35.016Z,14.70
2023-05-09T20:20:38.475Z,14.70
2023-05-09T20:22:41.089Z,14.70
2023-05-09T20:24:43.657Z,14.70
2023-05-09T20:26:46.311Z,14.70
2023-05-09T20:28:48.975Z,14.70
2023-05-09T20:30:54.583Z,14.70
2023-05-09T20:32:58.735Z,14.70
2023-05-09T20:35:01.032Z,14.70
2023-05-09T20:37:04.249Z,14.80
2023-05-09T20:39:06.789Z,14.70
2023-05-09T20:41:09.394Z,14.70
2023-05-09T20:43:12.021Z,14.70
2023-05-09T20:45:14.625Z,14.70
2023-05-09T20:47:19.839Z,14.60
2023-05-09T20:49:23.230Z,14.60
2023-05-09T20:51:25.920Z,14.60
2023-05-09T20:53:31.861Z,14.60
2023-05-09T20:55:34.824Z,14.60
2023-05-09T20:57:37.495Z,14.50
2023-05-09T20:59:40.133Z,14.50
2023-05-09T21:01:44.085Z,14.50
2023-05-09T21:03:49.439Z,14.50
2023-05-09T21:05:53.424Z,14.50
2023-05-09T21:07:55.964Z,14.50
2023-05-09T21:09:59.500Z,14.50
2023-05-09T21:12:04.569Z,14.50
2023-05-09T21:14:08.562Z,14.50
2023-05-09T21:16:11.397Z,14.40
2023-05-09T21:18:14.101Z,14.50
2023-05-09T21:20:19.484Z,14.40
2023-05-09T21:22:26.558Z,14.40
2023-05-09T21:24:29.293Z,14.40
2023-05-09T21:26:32.502Z,14.40
2023-05-09T21:28:35.195Z,14.40
2023-05-09T21:30:37.731Z,14.40
2023-05-09T21:32:40.597Z,14.40
2023-05-09T21:34:43.444Z,14.30
2023-05-09T21:36:48.861Z,14.40
2023-05-09T21:38:51.601Z,14.30
2023-05-09T21:40:54.541Z,14.30
2023-05-09T21:42:57.461Z,14.30
2023-05-09T21:45:00.218Z,14.10
2023-05-09T21:47:20.185Z,14.30
2023-05-09T21:49:28.862Z,14.30
2023-05-09T21:51:52.407Z,14.30
2023-05-09T21:53:55.480Z,14.20
2023-05-09T21:55:58.143Z,14.20
2023-05-09T21:58:01.839Z,14.20
2023-05-09T22:00:05.738Z,14.20
2023-05-09T22:02:15.822Z,14.20
2023-05-09T22:04:18.395Z,14.20
2023-05-09T22:06:21.430Z,14.30
2023-05-09T22:08:26.949Z,14.10
2023-05-09T22:10:29.968Z,14.20
2023-05-09T22:12:34.015Z,14.10
2023-05-09T22:14:42.173Z,14.10
2023-05-09T22:16:51.305Z,14.10
2023-05-09T22:18:55.029Z,14.10
2023-05-09T22:20:59.418Z,14.10
2023-05-09T22:23:03.150Z,14.10
2023-05-09T22:25:09.020Z,14.50
2023-05-09T22:27:11.709Z,14.20
2023-05-09T22:29:16.632Z,14.20
2023-05-09T22:31:19.121Z,14.10
2023-05-09T22:33:21.608Z,14.30
2023-05-09T22:35:24.187Z,14.10
2023-05-09T22:37:26.951Z,14.10
2023-05-09T22:39:31.074Z,14.10
2023-05-09T22:41:36.206Z,14.20
2023-05-09T22:43:39.466Z,14.10
2023-05-09T22:45:43.527Z,14.10
2023-05-09T22:47:46.029Z,14.10
2023-05-09T22:49:50.154Z,14.10
2023-05-09T22:51:52.700Z,14.10
2023-05-09T22:53:55.134Z,14.10
2023-05-09T22:55:59.559Z,14.10
2023-05-09T22:58:04.687Z,14.10
2023-05-09T23:00:08.536Z,14.10
2023-05-09T23:02:17.777Z,14.10
2023-05-09T23:04:20.265Z,14.30
2023-05-09T23:06:23.010Z,14.10
2023-05-09T23:08:25.615Z,14.00
2023-05-09T23:10:28.401Z,14.10
2023-05-09T23:12:31.350Z,14.10
2023-05-09T23:14:37.345Z,14.10
2023-05-09T23:16:39.987Z,14.00
2023-05-09T23:18:42.565Z,14.00
2023-05-09T23:20:45.602Z,14.00
2023-05-09T23:22:48.108Z,14.00
2023-05-09T23:24:50.836Z,14.00
2023-05-09T23:26:54.305Z,13.90
2023-05-09T23:28:56.892Z,13.90
2023-05-09T23:31:03.605Z,14.20
2023-05-09T23:33:10.727Z,13.80
2023-05-09T23:35:17.313Z,13.70
2023-05-09T23:37:19.791Z,13.70
2023-05-09T23:39:23.387Z,13.60
2023-05-09T23:41:26.466Z,13.60
2023-05-09T23:43:30.496Z,13.60
2023-05-09T23:45:32.942Z,13.60
2023-05-09T23:47:38.276Z,13.50
2023-05-09T23:49:40.736Z,13.50
2023-05-09T23:51:43.402Z,13.70
2023-05-09T23:53:46.219Z,13.50
2023-05-09T23:55:48.936Z,13.40
2023-05-09T23:57:51.682Z,13.40
2023-05-09T23:59:54.275Z,13.30
